Hovedside
METAR-TAF:

METAR-TAF

Lufthavner :

Košice, Slovakia

breddegrad: 48-39-47N, lengdegrad: 021-14-28E, høyde over havet: 232 m

Gjeldene værobservasjon

Denne rapporten ble laget for 34 minutter siden, klokken 16:00 UTC
Vind 15 kt fra Nord-nordøst
Temperatur 24°C
Luftfuktighet 47%
Trykk 1016 hPa
Sikt 10 km eller mer
ingen skyer under 1500 m og ingen bygeskyer

METAR: LZKZ 241600Z 03015KT CAVOK 24/12 Q1016 NOSIG

Tid: 18:34 (16:34 UTC)

Varsel

Denne rapporten ble laget for 5 timer og 19 minutter siden, klokken 11:15 UTC
Varsel gyldig fra 24. klokken 12 UTC til 25. klokken 12 UTC
Vind 13 kt fra Nord-nordøst
Sikt 10 km eller mer
ingen skyer under 1500 m og ingen bygeskyer
Sannsynlighet 30% :
Midlertidig
fra 24. klokken 12 UTC til 24. klokken 16 UTC
Vind 15 kt fra Nord-nordøst med vindkast opp mot 25 kt

TAF: LZKZ 241115Z 2412/2512 02013KT CAVOK PROB30 TEMPO 2412/2416 02015G25KT

Værobservasjoner og værvarsel for over 4000 flyplasser (METAR- og TAF-rapporter).

Tilgjengelige stasjoner er representert av de røde og gule prikkene på kartet.

Hold musepekeren over prikken for å se navnet på stasjonen.

Klikk så for å se værobservasjoner og -varsler.

For å forandre kartet kan du klikke på den grønne knappen med svart kryss for å zoome inn, på den grønne knappen med strek for å zoome ut, eller på de grønne pilene for å se tilstøtende kart.


METAR-TAF: